createdAt,value
2022-08-22T00:01:33.990Z,19.11
2022-08-22T00:02:54.358Z,20.79
2022-08-22T00:03:03.230Z,21.11
2022-08-22T00:05:57.351Z,18.53
2022-08-22T00:10:25.582Z,18.95
2022-08-22T00:14:58.402Z,19.28
2022-08-22T00:19:04.600Z,19.14
2022-08-22T00:23:25.088Z,19.11
2022-08-22T00:27:34.085Z,19.27
2022-08-22T00:31:40.385Z,19.09
2022-08-22T00:35:47.830Z,18.93
2022-08-22T00:39:55.104Z,19.03
2022-08-22T00:44:17.127Z,19.30
2022-08-22T00:48:35.300Z,19.45
2022-08-22T00:53:11.403Z,19.20
2022-08-22T00:57:27.720Z,19.17
2022-08-22T01:01:36.363Z,19.24
2022-08-22T01:05:37.830Z,19.08
2022-08-22T01:10:18.948Z,19.06
2022-08-22T01:14:37.833Z,18.90
2022-08-22T01:19:13.088Z,18.51
2022-08-22T01:23:45.652Z,18.57
2022-08-22T01:28:05.704Z,18.10
2022-08-22T01:32:48.790Z,18.53
2022-08-22T01:37:25.637Z,18.81
2022-08-22T01:41:41.204Z,18.71
2022-08-22T01:46:20.668Z,18.35
2022-08-22T01:50:43.643Z,18.35
2022-08-22T01:54:58.135Z,18.56
2022-08-22T01:59:11.241Z,18.25
2022-08-22T02:03:47.732Z,17.86
2022-08-22T02:08:03.214Z,17.11
2022-08-22T02:12:26.086Z,17.21
2022-08-22T02:16:40.740Z,17.04
2022-08-22T02:20:47.964Z,17.64
2022-08-22T02:25:08.871Z,18.22
2022-08-22T02:29:16.351Z,18.27
2022-08-22T02:33:38.364Z,18.38
2022-08-22T02:38:07.923Z,17.98
2022-08-22T02:42:12.312Z,17.33
2022-08-22T02:46:43.875Z,17.68
2022-08-22T02:51:25.518Z,17.91
2022-08-22T02:55:38.139Z,17.55
2022-08-22T03:00:01.969Z,17.93
2022-08-22T03:04:22.493Z,18.31
2022-08-22T03:08:29.217Z,18.42
2022-08-22T03:12:56.973Z,18.39
2022-08-22T03:17:10.751Z,18.30
2022-08-22T03:21:36.776Z,18.23
2022-08-22T03:26:09.024Z,17.98
2022-08-22T03:30:20.160Z,17.70
2022-08-22T03:34:25.005Z,17.34
2022-08-22T03:38:45.680Z,18.01
2022-08-22T03:42:53.117Z,18.28
2022-08-22T03:47:28.568Z,18.23
2022-08-22T03:52:01.967Z,17.79
2022-08-22T03:56:09.058Z,18.00
2022-08-22T04:00:22.660Z,17.77
2022-08-22T04:04:57.893Z,18.17
2022-08-22T04:09:18.163Z,18.02
2022-08-22T04:13:49.063Z,17.28
2022-08-22T04:18:12.270Z,16.98
2022-08-22T04:22:33.440Z,17.07
2022-08-22T04:26:46.105Z,17.54
2022-08-22T04:30:59.924Z,18.21
2022-08-22T04:35:06.927Z,18.35
2022-08-22T04:39:18.521Z,18.50
2022-08-22T04:43:33.979Z,19.18
2022-08-22T04:48:03.607Z,19.47
2022-08-22T04:52:18.323Z,20.45
2022-08-22T04:56:57.560Z,21.78
2022-08-22T05:01:25.557Z,22.52
2022-08-22T05:05:35.347Z,21.92
2022-08-22T05:09:41.202Z,21.19
2022-08-22T05:13:47.124Z,21.49
2022-08-22T05:17:50.731Z,21.46
2022-08-22T05:21:52.872Z,21.36
2022-08-22T05:25:59.671Z,20.24
2022-08-22T05:30:09.273Z,19.88
2022-08-22T05:34:16.626Z,20.04
2022-08-22T05:38:23.040Z,20.65
2022-08-22T05:42:31.340Z,20.88
2022-08-22T05:46:46.752Z,20.67
2022-08-22T05:50:54.691Z,21.02
2022-08-22T05:55:03.090Z,21.78
2022-08-22T05:59:25.314Z,21.52
2022-08-22T06:03:53.550Z,22.33
2022-08-22T06:08:03.909Z,22.96
2022-08-22T06:12:22.089Z,24.02
2022-08-22T06:16:51.733Z,24.35
2022-08-22T06:21:00.792Z,23.67
2022-08-22T06:25:12.332Z,24.49
2022-08-22T06:29:27.318Z,23.65
2022-08-22T06:33:33.098Z,23.98
2022-08-22T06:37:41.059Z,24.61
2022-08-22T06:41:54.328Z,24.01
2022-08-22T06:45:56.068Z,23.44
2022-08-22T06:50:37.319Z,23.38
2022-08-22T06:54:44.479Z,23.67
2022-08-22T06:58:48.668Z,23.95
2022-08-22T07:02:58.695Z,24.16
2022-08-22T07:07:01.597Z,23.41
2022-08-22T07:11:08.954Z,23.19
2022-08-22T07:15:39.832Z,23.13
2022-08-22T07:19:56.068Z,23.42
2022-08-22T07:24:01.193Z,23.88
2022-08-22T07:28:16.167Z,23.80
2022-08-22T07:32:25.219Z,23.78
2022-08-22T07:36:48.052Z,23.67
2022-08-22T07:40:56.802Z,24.09
2022-08-22T07:45:10.539Z,23.63
2022-08-22T07:49:21.802Z,23.90
2022-08-22T07:53:33.946Z,23.71
2022-08-22T07:57:41.376Z,24.50
2022-08-22T08:01:50.213Z,24.43
2022-08-22T08:05:52.369Z,24.75
2022-08-22T08:09:59.982Z,24.43
2022-08-22T08:14:05.499Z,24.10
2022-08-22T08:18:21.824Z,24.45
2022-08-22T08:22:25.732Z,24.89
2022-08-22T08:27:10.541Z,24.79
2022-08-22T08:31:20.343Z,26.00
2022-08-22T08:35:28.211Z,24.85
2022-08-22T08:39:35.768Z,24.44
2022-08-22T08:43:46.174Z,25.02
2022-08-22T08:48:06.136Z,25.13
2022-08-22T08:52:24.491Z,25.76
2022-08-22T08:56:37.754Z,26.68
2022-08-22T09:00:42.800Z,26.57
2022-08-22T09:05:11.994Z,27.04
2022-08-22T09:10:08.607Z,27.13
2022-08-22T09:14:40.108Z,24.85
2022-08-22T09:19:02.972Z,26.31
2022-08-22T09:23:38.052Z,25.62
2022-08-22T09:27:55.738Z,26.82
2022-08-22T09:32:13.140Z,27.68
2022-08-22T09:36:22.358Z,27.32
2022-08-22T09:40:34.892Z,26.63
2022-08-22T09:44:55.551Z,27.67
2022-08-22T09:49:05.475Z,28.04
2022-08-22T09:53:34.765Z,28.55
2022-08-22T09:57:50.431Z,28.06
2022-08-22T10:02:19.184Z,26.30
2022-08-22T10:06:26.759Z,27.28
2022-08-22T10:11:00.130Z,27.75
2022-08-22T10:15:33.601Z,26.14
2022-08-22T10:20:25.529Z,25.90
2022-08-22T10:24:43.750Z,26.76
2022-08-22T10:28:45.703Z,26.28
2022-08-22T10:33:00.068Z,26.84
2022-08-22T10:37:10.419Z,26.37
2022-08-22T10:41:19.772Z,25.46
2022-08-22T10:45:36.596Z,26.03
2022-08-22T10:49:51.294Z,25.95
2022-08-22T10:54:14.640Z,26.43
2022-08-22T10:58:27.824Z,25.66
2022-08-22T11:02:37.587Z,26.75
2022-08-22T11:06:54.155Z,25.43
2022-08-22T11:11:03.063Z,26.11
2022-08-22T11:15:28.408Z,25.67
2022-08-22T11:20:01.360Z,26.72
2022-08-22T11:24:53.907Z,25.77
2022-08-22T11:29:21.682Z,25.44
2022-08-22T11:33:47.473Z,25.90
2022-08-22T11:37:58.254Z,26.53
2022-08-22T11:42:06.233Z,27.24
2022-08-22T11:46:29.691Z,27.40
2022-08-22T11:50:37.872Z,26.78
2022-08-22T11:55:16.855Z,26.42
2022-08-22T11:59:29.676Z,26.91
2022-08-22T12:03:58.475Z,26.86
2022-08-22T12:08:11.313Z,26.31
2022-08-22T12:12:23.447Z,25.49
2022-08-22T12:16:45.175Z,25.41
2022-08-22T12:21:13.474Z,25.89
2022-08-22T12:25:56.423Z,25.63
2022-08-22T12:30:14.133Z,26.41
2022-08-22T12:34:26.833Z,27.25
2022-08-22T12:38:50.436Z,27.13
2022-08-22T12:43:21.741Z,26.73
2022-08-22T12:47:45.732Z,27.38
2022-08-22T12:51:55.757Z,27.60
2022-08-22T12:56:13.813Z,27.42
2022-08-22T13:00:36.735Z,26.97
2022-08-22T13:04:44.988Z,27.33
2022-08-22T13:08:46.881Z,27.18
2022-08-22T13:12:53.936Z,27.23
2022-08-22T13:16:58.889Z,26.92
2022-08-22T13:21:04.065Z,26.12
2022-08-22T13:25:14.569Z,25.73
2022-08-22T13:29:57.130Z,26.47
2022-08-22T13:34:01.600Z,25.29
2022-08-22T13:38:12.956Z,25.15
2022-08-22T13:42:27.589Z,25.09
2022-08-22T13:46:35.524Z,25.95
2022-08-22T13:51:04.954Z,25.14
2022-08-22T13:55:27.633Z,25.22
2022-08-22T13:59:59.450Z,25.20
2022-08-22T14:04:31.997Z,24.94
2022-08-22T14:08:45.793Z,25.56
2022-08-22T14:12:56.591Z,25.29
2022-08-22T14:16:59.365Z,25.77
2022-08-22T14:21:25.244Z,25.97
2022-08-22T14:25:35.198Z,26.07
2022-08-22T14:29:56.796Z,26.07
2022-08-22T14:34:13.471Z,25.75
2022-08-22T14:38:29.789Z,25.98
2022-08-22T14:42:47.791Z,25.70
2022-08-22T14:47:30.337Z,26.13
2022-08-22T14:51:28.256Z,25.60
2022-08-22T14:55:30.644Z,26.28
2022-08-22T14:59:52.281Z,27.01
2022-08-22T15:04:01.044Z,26.79
2022-08-22T15:08:05.427Z,25.75
2022-08-22T15:12:21.416Z,25.67
2022-08-22T15:16:56.779Z,25.60
2022-08-22T15:21:25.341Z,26.65
2022-08-22T15:25:40.978Z,26.32
2022-08-22T15:29:56.124Z,25.30
2022-08-22T15:34:11.331Z,25.08
2022-08-22T15:38:32.585Z,25.12
2022-08-22T15:42:47.179Z,26.15
2022-08-22T15:46:51.352Z,25.09
2022-08-22T15:51:25.302Z,25.31
2022-08-22T15:55:28.105Z,25.03
2022-08-22T15:59:54.232Z,24.42
2022-08-22T16:04:02.448Z,24.49
2022-08-22T16:08:09.282Z,25.30
2022-08-22T16:12:28.328Z,24.72
2022-08-22T16:16:41.695Z,24.56
2022-08-22T16:20:51.771Z,24.56
2022-08-22T16:24:59.663Z,24.42
2022-08-22T16:29:14.695Z,24.41
2022-08-22T16:33:39.948Z,24.24
2022-08-22T16:37:47.473Z,24.17
2022-08-22T16:41:50.730Z,23.98
2022-08-22T16:45:53.078Z,24.15
2022-08-22T16:50:00.420Z,23.97
2022-08-22T16:54:08.681Z,24.13
2022-08-22T16:58:56.645Z,24.15
2022-08-22T17:03:18.190Z,24.44
2022-08-22T17:07:54.020Z,24.94
2022-08-22T17:12:24.089Z,25.20
2022-08-22T17:16:34.607Z,24.44
2022-08-22T17:21:13.620Z,24.79
2022-08-22T17:25:46.188Z,24.11
2022-08-22T17:30:02.931Z,24.57
2022-08-22T17:34:25.461Z,24.36
2022-08-22T17:38:46.380Z,24.06
2022-08-22T17:43:16.105Z,23.96
2022-08-22T17:47:23.419Z,24.36
2022-08-22T17:51:43.199Z,24.32
2022-08-22T17:56:17.877Z,24.93
2022-08-22T18:00:31.362Z,24.56
2022-08-22T18:05:16.612Z,24.14
2022-08-22T18:09:29.122Z,23.83
2022-08-22T18:13:42.088Z,23.55
2022-08-22T18:18:09.423Z,24.24
2022-08-22T18:22:19.804Z,24.21
2022-08-22T18:26:36.691Z,24.47
2022-08-22T18:31:02.312Z,23.97
2022-08-22T18:35:14.233Z,23.55
2022-08-22T18:39:27.340Z,23.72
2022-08-22T18:43:44.992Z,23.91
2022-08-22T18:47:55.466Z,23.82
2022-08-22T18:52:13.636Z,23.87
2022-08-22T18:56:34.127Z,23.07
2022-08-22T19:00:50.796Z,23.12
2022-08-22T19:05:19.471Z,22.88
2022-08-22T19:09:44.089Z,23.07
2022-08-22T19:14:25.569Z,22.33
2022-08-22T19:18:36.284Z,22.36
2022-08-22T19:22:38.110Z,22.94
2022-08-22T19:26:47.787Z,22.71
2022-08-22T19:30:53.078Z,22.52
2022-08-22T19:35:23.562Z,22.47
2022-08-22T19:39:40.049Z,22.27
2022-08-22T19:43:44.176Z,22.16
2022-08-22T19:47:55.595Z,22.53
2022-08-22T19:52:22.919Z,22.11
2022-08-22T19:56:54.891Z,22.72
2022-08-22T20:01:02.223Z,22.79
2022-08-22T20:05:22.132Z,22.65
2022-08-22T20:10:08.904Z,22.73
2022-08-22T20:14:30.494Z,22.69
2022-08-22T20:19:05.089Z,22.70
2022-08-22T20:23:33.939Z,22.50
2022-08-22T20:27:42.337Z,22.43
2022-08-22T20:31:48.618Z,22.39
2022-08-22T20:35:56.080Z,22.61
2022-08-22T20:40:21.053Z,22.51
2022-08-22T20:44:40.447Z,22.52
2022-08-22T20:48:43.595Z,22.40
2022-08-22T20:52:54.381Z,22.14
2022-08-22T20:57:02.883Z,22.24
2022-08-22T21:01:07.292Z,22.07
2022-08-22T21:05:22.340Z,22.20
2022-08-22T21:09:42.621Z,22.30
2022-08-22T21:13:44.127Z,22.26
2022-08-22T21:17:45.576Z,22.20
2022-08-22T21:21:47.223Z,22.28
2022-08-22T21:25:53.787Z,22.38
2022-08-22T21:29:59.401Z,22.30
2022-08-22T21:34:02.152Z,22.00
2022-08-22T21:38:04.025Z,22.34
2022-08-22T21:42:05.592Z,22.29
2022-08-22T21:46:07.856Z,22.20
2022-08-22T21:50:21.169Z,22.06
2022-08-22T21:54:25.498Z,22.12
2022-08-22T21:58:35.035Z,21.77
2022-08-22T22:02:40.950Z,21.37
2022-08-22T22:06:43.208Z,21.69
2022-08-22T22:10:46.631Z,21.86
2022-08-22T22:14:49.427Z,21.81
2022-08-22T22:18:50.916Z,21.88
2022-08-22T22:22:52.366Z,21.84
2022-08-22T22:26:53.873Z,21.93
2022-08-22T22:30:55.359Z,22.06
2022-08-22T22:34:56.922Z,22.08
2022-08-22T22:38:58.720Z,22.13
2022-08-22T22:43:00.205Z,22.05
2022-08-22T22:47:02.931Z,22.01
2022-08-22T22:51:08.971Z,21.79
2022-08-22T22:55:10.529Z,21.84
2022-08-22T22:59:13.515Z,21.58
2022-08-22T23:03:16.256Z,21.96
2022-08-22T23:07:18.508Z,21.87
2022-08-22T23:11:27.248Z,22.12
2022-08-22T23:15:28.708Z,21.97
2022-08-22T23:19:30.954Z,22.12
2022-08-22T23:23:32.401Z,22.08
2022-08-22T23:27:33.881Z,21.91
2022-08-22T23:31:41.346Z,21.97
2022-08-22T23:35:42.793Z,21.98
2022-08-22T23:39:44.792Z,21.81
2022-08-22T23:43:49.117Z,21.73
2022-08-22T23:47:50.554Z,21.82
2022-08-22T23:51:52.424Z,21.84
2022-08-22T23:55:53.906Z,21.98
2022-08-22T23:59:58.007Z,22.04
